sensor_id;sensor_type;location;lat;lon;timestamp;P1;durP1;ratioP1;P2;durP2;ratioP2
41709;SDS011;59402;48.396;-4.472;2023-05-10T00:01:09;34.80;;;5.65;;
41709;SDS011;59402;48.396;-4.472;2023-05-10T00:03:35;35.67;;;6.60;;
41709;SDS011;59402;48.396;-4.472;2023-05-10T00:06:00;31.02;;;6.65;;
41709;SDS011;59402;48.396;-4.472;2023-05-10T00:08:26;33.67;;;5.80;;
41709;SDS011;59402;48.396;-4.472;2023-05-10T00:10:52;32.83;;;5.78;;
41709;SDS011;59402;48.396;-4.472;2023-05-10T00:13:18;35.50;;;5.28;;
41709;SDS011;59402;48.396;-4.472;2023-05-10T00:15:44;27.80;;;5.18;;
41709;SDS011;59402;48.396;-4.472;2023-05-10T00:18:10;39.58;;;6.20;;
41709;SDS011;59402;48.396;-4.472;2023-05-10T00:20:36;36.22;;;5.78;;
41709;SDS011;59402;48.396;-4.472;2023-05-10T00:23:01;33.88;;;5.57;;
41709;SDS011;59402;48.396;-4.472;2023-05-10T00:25:27;36.03;;;6.22;;
41709;SDS011;59402;48.396;-4.472;2023-05-10T00:27:53;37.03;;;5.40;;
41709;SDS011;59402;48.396;-4.472;2023-05-10T00:30:20;30.27;;;5.40;;
41709;SDS011;59402;48.396;-4.472;2023-05-10T00:32:46;30.67;;;5.18;;
41709;SDS011;59402;48.396;-4.472;2023-05-10T00:35:13;36.90;;;5.93;;
41709;SDS011;59402;48.396;-4.472;2023-05-10T00:37:39;29.58;;;4.82;;
41709;SDS011;59402;48.396;-4.472;2023-05-10T00:40:05;35.72;;;5.30;;
41709;SDS011;59402;48.396;-4.472;2023-05-10T00:42:31;31.83;;;5.50;;
41709;SDS011;59402;48.396;-4.472;2023-05-10T00:44:57;38.40;;;6.45;;
41709;SDS011;59402;48.396;-4.472;2023-05-10T00:47:23;35.95;;;5.78;;
41709;SDS011;59402;48.396;-4.472;2023-05-10T00:49:49;30.98;;;5.13;;
41709;SDS011;59402;48.396;-4.472;2023-05-10T00:52:15;29.10;;;4.80;;
41709;SDS011;59402;48.396;-4.472;2023-05-10T00:54:41;34.75;;;5.10;;
41709;SDS011;59402;48.396;-4.472;2023-05-10T00:57:07;29.02;;;5.03;;
41709;SDS011;59402;48.396;-4.472;2023-05-10T00:59:33;38.10;;;6.22;;
41709;SDS011;59402;48.396;-4.472;2023-05-10T01:01:58;26.98;;;4.82;;
41709;SDS011;59402;48.396;-4.472;2023-05-10T01:04:24;36.83;;;5.75;;
41709;SDS011;59402;48.396;-4.472;2023-05-10T01:06:53;30.70;;;5.75;;
41709;SDS011;59402;48.396;-4.472;2023-05-10T01:09:19;32.45;;;5.30;;
41709;SDS011;59402;48.396;-4.472;2023-05-10T01:11:46;29.23;;;4.88;;
41709;SDS011;59402;48.396;-4.472;2023-05-10T01:14:12;36.42;;;6.15;;
41709;SDS011;59402;48.396;-4.472;2023-05-10T01:16:40;39.03;;;6.30;;
41709;SDS011;59402;48.396;-4.472;2023-05-10T01:19:07;32.58;;;6.03;;
41709;SDS011;59402;48.396;-4.472;2023-05-10T01:35:47;37.70;;;7.40;;
41709;SDS011;59402;48.396;-4.472;2023-05-10T01:38:33;37.08;;;5.28;;
41709;SDS011;59402;48.396;-4.472;2023-05-10T01:46:31;31.23;;;5.03;;
41709;SDS011;59402;48.396;-4.472;2023-05-10T01:49:00;26.50;;;4.60;;
41709;SDS011;59402;48.396;-4.472;2023-05-10T01:51:29;39.10;;;5.75;;
41709;SDS011;59402;48.396;-4.472;2023-05-10T01:54:04;28.98;;;5.70;;
41709;SDS011;59402;48.396;-4.472;2023-05-10T01:56:31;31.80;;;4.88;;
41709;SDS011;59402;48.396;-4.472;2023-05-10T01:58:58;30.98;;;4.30;;
41709;SDS011;59402;48.396;-4.472;2023-05-10T02:01:26;24.70;;;4.80;;
41709;SDS011;59402;48.396;-4.472;2023-05-10T02:03:52;29.58;;;4.75;;
41709;SDS011;59402;48.396;-4.472;2023-05-10T02:06:19;27.90;;;4.32;;
41709;SDS011;59402;48.396;-4.472;2023-05-10T02:08:45;23.92;;;4.43;;
41709;SDS011;59402;48.396;-4.472;2023-05-10T02:11:13;29.63;;;4.90;;
41709;SDS011;59402;48.396;-4.472;2023-05-10T02:13:39;28.77;;;4.60;;
41709;SDS011;59402;48.396;-4.472;2023-05-10T02:16:05;24.45;;;5.28;;
41709;SDS011;59402;48.396;-4.472;2023-05-10T02:18:31;27.02;;;4.72;;
41709;SDS011;59402;48.396;-4.472;2023-05-10T02:20:58;27.38;;;4.05;;
41709;SDS011;59402;48.396;-4.472;2023-05-10T02:23:24;23.42;;;3.85;;
41709;SDS011;59402;48.396;-4.472;2023-05-10T02:25:51;30.60;;;4.55;;
41709;SDS011;59402;48.396;-4.472;2023-05-10T02:28:19;32.40;;;4.75;;
41709;SDS011;59402;48.396;-4.472;2023-05-10T02:30:46;27.25;;;4.43;;
41709;SDS011;59402;48.396;-4.472;2023-05-10T02:33:12;28.10;;;3.92;;
41709;SDS011;59402;48.396;-4.472;2023-05-10T02:35:39;26.95;;;4.82;;
41709;SDS011;59402;48.396;-4.472;2023-05-10T02:38:04;24.15;;;4.40;;
41709;SDS011;59402;48.396;-4.472;2023-05-10T02:40:32;28.67;;;5.18;;
41709;SDS011;59402;48.396;-4.472;2023-05-10T02:42:58;28.02;;;5.38;;
41709;SDS011;59402;48.396;-4.472;2023-05-10T02:45:26;33.70;;;6.78;;
41709;SDS011;59402;48.396;-4.472;2023-05-10T02:47:53;36.00;;;6.07;;
41709;SDS011;59402;48.396;-4.472;2023-05-10T02:50:19;34.58;;;5.30;;
41709;SDS011;59402;48.396;-4.472;2023-05-10T02:52:46;38.17;;;6.07;;
41709;SDS011;59402;48.396;-4.472;2023-05-10T02:55:14;36.42;;;5.55;;
41709;SDS011;59402;48.396;-4.472;2023-05-10T02:57:44;31.23;;;5.32;;
41709;SDS011;59402;48.396;-4.472;2023-05-10T03:00:14;30.40;;;4.93;;
41709;SDS011;59402;48.396;-4.472;2023-05-10T03:02:39;35.17;;;4.88;;
41709;SDS011;59402;48.396;-4.472;2023-05-10T03:05:05;30.35;;;4.68;;
41709;SDS011;59402;48.396;-4.472;2023-05-10T03:07:32;31.15;;;6.78;;
41709;SDS011;59402;48.396;-4.472;2023-05-10T03:09:58;33.38;;;5.20;;
41709;SDS011;59402;48.396;-4.472;2023-05-10T03:17:49;37.80;;;5.40;;
41709;SDS011;59402;48.396;-4.472;2023-05-10T03:20:22;32.15;;;4.57;;
41709;SDS011;59402;48.396;-4.472;2023-05-10T03:22:53;36.42;;;5.35;;
41709;SDS011;59402;48.396;-4.472;2023-05-10T03:25:22;34.92;;;5.60;;
41709;SDS011;59402;48.396;-4.472;2023-05-10T03:27:49;36.25;;;5.80;;
41709;SDS011;59402;48.396;-4.472;2023-05-10T03:30:15;32.90;;;4.75;;
41709;SDS011;59402;48.396;-4.472;2023-05-10T03:32:42;28.65;;;4.93;;
41709;SDS011;59402;48.396;-4.472;2023-05-10T03:35:12;25.92;;;3.97;;
41709;SDS011;59402;48.396;-4.472;2023-05-10T03:37:39;29.15;;;4.57;;
41709;SDS011;59402;48.396;-4.472;2023-05-10T03:40:05;34.42;;;4.32;;
41709;SDS011;59402;48.396;-4.472;2023-05-10T03:42:33;26.77;;;4.65;;
41709;SDS011;59402;48.396;-4.472;2023-05-10T03:44:59;33.42;;;4.85;;
41709;SDS011;59402;48.396;-4.472;2023-05-10T03:47:25;39.75;;;6.13;;
41709;SDS011;59402;48.396;-4.472;2023-05-10T03:49:51;31.80;;;5.15;;
41709;SDS011;59402;48.396;-4.472;2023-05-10T03:52:17;32.47;;;4.88;;
41709;SDS011;59402;48.396;-4.472;2023-05-10T03:54:43;31.60;;;5.53;;
41709;SDS011;59402;48.396;-4.472;2023-05-10T03:57:09;26.63;;;5.07;;
41709;SDS011;59402;48.396;-4.472;2023-05-10T03:59:35;30.13;;;5.22;;
41709;SDS011;59402;48.396;-4.472;2023-05-10T04:02:00;35.53;;;6.35;;
41709;SDS011;59402;48.396;-4.472;2023-05-10T04:04:26;34.55;;;5.43;;
41709;SDS011;59402;48.396;-4.472;2023-05-10T04:06:52;39.45;;;5.55;;
41709;SDS011;59402;48.396;-4.472;2023-05-10T04:09:18;43.53;;;6.25;;
41709;SDS011;59402;48.396;-4.472;2023-05-10T04:11:44;51.25;;;6.03;;
41709;SDS011;59402;48.396;-4.472;2023-05-10T04:14:09;38.28;;;5.22;;
41709;SDS011;59402;48.396;-4.472;2023-05-10T04:16:35;33.10;;;5.13;;
41709;SDS011;59402;48.396;-4.472;2023-05-10T04:19:01;37.00;;;5.15;;
41709;SDS011;59402;48.396;-4.472;2023-05-10T04:21:27;33.55;;;5.22;;
41709;SDS011;59402;48.396;-4.472;2023-05-10T04:23:53;33.67;;;5.00;;
41709;SDS011;59402;48.396;-4.472;2023-05-10T04:26:19;36.80;;;5.97;;
41709;SDS011;59402;48.396;-4.472;2023-05-10T04:28:45;35.17;;;5.03;;
41709;SDS011;59402;48.396;-4.472;2023-05-10T04:31:11;35.10;;;6.25;;
41709;SDS011;59402;48.396;-4.472;2023-05-10T04:33:37;34.50;;;5.72;;
41709;SDS011;59402;48.396;-4.472;2023-05-10T04:36:03;36.25;;;5.35;;
41709;SDS011;59402;48.396;-4.472;2023-05-10T04:38:30;37.03;;;5.28;;
41709;SDS011;59402;48.396;-4.472;2023-05-10T04:41:06;35.28;;;6.07;;
41709;SDS011;59402;48.396;-4.472;2023-05-10T04:43:32;29.63;;;4.93;;
41709;SDS011;59402;48.396;-4.472;2023-05-10T04:45:58;28.00;;;4.53;;
41709;SDS011;59402;48.396;-4.472;2023-05-10T04:48:24;36.08;;;4.95;;
41709;SDS011;59402;48.396;-4.472;2023-05-10T04:50:50;31.65;;;4.55;;
41709;SDS011;59402;48.396;-4.472;2023-05-10T04:53:15;39.03;;;5.88;;
41709;SDS011;59402;48.396;-4.472;2023-05-10T04:55:41;31.42;;;5.32;;
41709;SDS011;59402;48.396;-4.472;2023-05-10T04:58:07;37.10;;;4.93;;
41709;SDS011;59402;48.396;-4.472;2023-05-10T05:00:33;35.35;;;5.28;;
41709;SDS011;59402;48.396;-4.472;2023-05-10T05:02:59;17.17;;;3.90;;
41709;SDS011;59402;48.396;-4.472;2023-05-10T05:05:24;26.75;;;3.63;;
41709;SDS011;59402;48.396;-4.472;2023-05-10T05:07:50;21.85;;;4.38;;
41709;SDS011;59402;48.396;-4.472;2023-05-10T05:10:16;22.73;;;6.82;;
41709;SDS011;59402;48.396;-4.472;2023-05-10T05:12:42;19.58;;;3.25;;
41709;SDS011;59402;48.396;-4.472;2023-05-10T05:15:07;24.25;;;7.68;;
41709;SDS011;59402;48.396;-4.472;2023-05-10T05:17:34;16.90;;;5.50;;
41709;SDS011;59402;48.396;-4.472;2023-05-10T05:20:00;15.60;;;3.70;;
41709;SDS011;59402;48.396;-4.472;2023-05-10T05:22:26;16.33;;;3.15;;
41709;SDS011;59402;48.396;-4.472;2023-05-10T05:24:53;14.25;;;2.47;;
41709;SDS011;59402;48.396;-4.472;2023-05-10T05:27:19;17.67;;;3.63;;
41709;SDS011;59402;48.396;-4.472;2023-05-10T05:29:52;13.70;;;2.47;;
41709;SDS011;59402;48.396;-4.472;2023-05-10T05:32:18;13.20;;;2.05;;
41709;SDS011;59402;48.396;-4.472;2023-05-10T05:34:45;12.60;;;2.88;;
41709;SDS011;59402;48.396;-4.472;2023-05-10T05:37:14;11.43;;;2.80;;
41709;SDS011;59402;48.396;-4.472;2023-05-10T05:39:40;15.07;;;2.63;;
41709;SDS011;59402;48.396;-4.472;2023-05-10T05:42:07;16.20;;;2.80;;
41709;SDS011;59402;48.396;-4.472;2023-05-10T05:44:34;15.57;;;2.30;;
41709;SDS011;59402;48.396;-4.472;2023-05-10T05:46:59;16.52;;;3.28;;
41709;SDS011;59402;48.396;-4.472;2023-05-10T05:49:25;15.77;;;3.28;;
41709;SDS011;59402;48.396;-4.472;2023-05-10T05:51:51;16.20;;;3.47;;
41709;SDS011;59402;48.396;-4.472;2023-05-10T05:54:17;15.65;;;3.95;;
41709;SDS011;59402;48.396;-4.472;2023-05-10T05:56:42;19.98;;;3.30;;
41709;SDS011;59402;48.396;-4.472;2023-05-10T05:59:09;17.20;;;3.22;;
41709;SDS011;59402;48.396;-4.472;2023-05-10T06:01:35;19.88;;;3.45;;
41709;SDS011;59402;48.396;-4.472;2023-05-10T06:04:01;18.58;;;3.22;;
41709;SDS011;59402;48.396;-4.472;2023-05-10T06:06:27;19.05;;;3.33;;
41709;SDS011;59402;48.396;-4.472;2023-05-10T06:08:53;21.10;;;3.33;;
41709;SDS011;59402;48.396;-4.472;2023-05-10T06:11:19;24.48;;;3.83;;
41709;SDS011;59402;48.396;-4.472;2023-05-10T06:13:46;22.90;;;3.92;;
41709;SDS011;59402;48.396;-4.472;2023-05-10T06:16:12;24.65;;;4.38;;
41709;SDS011;59402;48.396;-4.472;2023-05-10T06:18:38;21.63;;;3.38;;
41709;SDS011;59402;48.396;-4.472;2023-05-10T06:21:04;24.50;;;3.55;;
41709;SDS011;59402;48.396;-4.472;2023-05-10T06:23:30;18.00;;;3.80;;
41709;SDS011;59402;48.396;-4.472;2023-05-10T06:25:56;23.00;;;3.95;;
41709;SDS011;59402;48.396;-4.472;2023-05-10T06:28:21;22.90;;;3.63;;
41709;SDS011;59402;48.396;-4.472;2023-05-10T06:30:47;22.35;;;3.80;;
41709;SDS011;59402;48.396;-4.472;2023-05-10T06:33:13;19.98;;;4.10;;
41709;SDS011;59402;48.396;-4.472;2023-05-10T06:35:39;24.38;;;4.20;;
41709;SDS011;59402;48.396;-4.472;2023-05-10T06:38:05;23.40;;;4.38;;
41709;SDS011;59402;48.396;-4.472;2023-05-10T06:40:30;24.23;;;3.50;;
41709;SDS011;59402;48.396;-4.472;2023-05-10T06:42:56;10.93;;;2.35;;
41709;SDS011;59402;48.396;-4.472;2023-05-10T06:45:22;12.38;;;2.03;;
41709;SDS011;59402;48.396;-4.472;2023-05-10T06:47:47;12.27;;;2.25;;
41709;SDS011;59402;48.396;-4.472;2023-05-10T06:50:13;13.13;;;2.30;;
41709;SDS011;59402;48.396;-4.472;2023-05-10T06:52:39;12.32;;;1.90;;
41709;SDS011;59402;48.396;-4.472;2023-05-10T06:55:05;12.15;;;2.20;;
41709;SDS011;59402;48.396;-4.472;2023-05-10T06:57:31;11.10;;;2.22;;
41709;SDS011;59402;48.396;-4.472;2023-05-10T06:59:57;13.18;;;2.60;;
41709;SDS011;59402;48.396;-4.472;2023-05-10T07:02:23;14.63;;;2.70;;
41709;SDS011;59402;48.396;-4.472;2023-05-10T07:04:49;11.57;;;2.22;;
41709;SDS011;59402;48.396;-4.472;2023-05-10T07:07:16;11.75;;;2.97;;
41709;SDS011;59402;48.396;-4.472;2023-05-10T07:09:42;15.07;;;2.83;;
41709;SDS011;59402;48.396;-4.472;2023-05-10T07:12:08;16.08;;;2.05;;
41709;SDS011;59402;48.396;-4.472;2023-05-10T07:14:34;16.95;;;2.55;;
41709;SDS011;59402;48.396;-4.472;2023-05-10T07:16:59;11.93;;;2.22;;
41709;SDS011;59402;48.396;-4.472;2023-05-10T07:19:25;17.38;;;2.28;;
41709;SDS011;59402;48.396;-4.472;2023-05-10T07:21:51;17.50;;;2.95;;
41709;SDS011;59402;48.396;-4.472;2023-05-10T07:24:17;16.63;;;2.90;;
41709;SDS011;59402;48.396;-4.472;2023-05-10T07:26:43;18.42;;;2.30;;
41709;SDS011;59402;48.396;-4.472;2023-05-10T07:29:09;16.42;;;3.03;;
41709;SDS011;59402;48.396;-4.472;2023-05-10T07:31:35;10.77;;;2.10;;
41709;SDS011;59402;48.396;-4.472;2023-05-10T07:34:00;15.15;;;1.95;;
41709;SDS011;59402;48.396;-4.472;2023-05-10T07:36:26;12.55;;;2.17;;
41709;SDS011;59402;48.396;-4.472;2023-05-10T07:38:52;10.88;;;1.85;;
41709;SDS011;59402;48.396;-4.472;2023-05-10T07:41:18;10.73;;;1.42;;
41709;SDS011;59402;48.396;-4.472;2023-05-10T07:43:44;14.30;;;1.85;;
41709;SDS011;59402;48.396;-4.472;2023-05-10T07:46:09;10.57;;;1.73;;
41709;SDS011;59402;48.396;-4.472;2023-05-10T07:48:36;13.70;;;1.90;;
41709;SDS011;59402;48.396;-4.472;2023-05-10T07:51:02;10.10;;;1.77;;
41709;SDS011;59402;48.396;-4.472;2023-05-10T07:53:28;8.25;;;1.42;;
41709;SDS011;59402;48.396;-4.472;2023-05-10T07:55:54;8.32;;;1.75;;
41709;SDS011;59402;48.396;-4.472;2023-05-10T07:58:23;13.60;;;1.90;;
41709;SDS011;59402;48.396;-4.472;2023-05-10T08:00:49;14.48;;;2.45;;
41709;SDS011;59402;48.396;-4.472;2023-05-10T08:03:15;12.18;;;2.53;;
41709;SDS011;59402;48.396;-4.472;2023-05-10T08:05:40;13.75;;;1.85;;
41709;SDS011;59402;48.396;-4.472;2023-05-10T08:08:06;16.40;;;2.80;;
41709;SDS011;59402;48.396;-4.472;2023-05-10T08:10:32;12.80;;;1.80;;
41709;SDS011;59402;48.396;-4.472;2023-05-10T08:12:57;13.60;;;3.25;;
41709;SDS011;59402;48.396;-4.472;2023-05-10T08:15:24;16.05;;;2.58;;
41709;SDS011;59402;48.396;-4.472;2023-05-10T08:17:50;13.07;;;2.97;;
41709;SDS011;59402;48.396;-4.472;2023-05-10T08:20:17;11.13;;;2.73;;
41709;SDS011;59402;48.396;-4.472;2023-05-10T08:22:45;13.82;;;2.33;;
41709;SDS011;59402;48.396;-4.472;2023-05-10T08:25:11;16.98;;;2.85;;
41709;SDS011;59402;48.396;-4.472;2023-05-10T08:27:36;11.73;;;2.55;;
41709;SDS011;59402;48.396;-4.472;2023-05-10T08:30:02;11.82;;;2.72;;
41709;SDS011;59402;48.396;-4.472;2023-05-10T08:32:28;14.55;;;2.35;;
41709;SDS011;59402;48.396;-4.472;2023-05-10T08:34:54;11.88;;;2.00;;
41709;SDS011;59402;48.396;-4.472;2023-05-10T08:37:21;12.65;;;2.10;;
41709;SDS011;59402;48.396;-4.472;2023-05-10T08:39:48;9.32;;;2.00;;
41709;SDS011;59402;48.396;-4.472;2023-05-10T08:42:13;11.98;;;2.28;;
41709;SDS011;59402;48.396;-4.472;2023-05-10T08:44:42;15.30;;;2.40;;
41709;SDS011;59402;48.396;-4.472;2023-05-10T08:47:07;14.45;;;2.17;;
41709;SDS011;59402;48.396;-4.472;2023-05-10T08:49:34;11.80;;;2.63;;
41709;SDS011;59402;48.396;-4.472;2023-05-10T08:52:02;19.88;;;2.33;;
41709;SDS011;59402;48.396;-4.472;2023-05-10T08:54:29;14.60;;;2.40;;
41709;SDS011;59402;48.396;-4.472;2023-05-10T08:56:56;14.57;;;2.60;;
41709;SDS011;59402;48.396;-4.472;2023-05-10T08:59:22;14.45;;;2.45;;
41709;SDS011;59402;48.396;-4.472;2023-05-10T09:01:48;11.75;;;2.45;;
41709;SDS011;59402;48.396;-4.472;2023-05-10T09:04:15;20.67;;;3.17;;
41709;SDS011;59402;48.396;-4.472;2023-05-10T09:06:40;15.05;;;2.90;;
41709;SDS011;59402;48.396;-4.472;2023-05-10T09:09:06;13.45;;;1.83;;
41709;SDS011;59402;48.396;-4.472;2023-05-10T09:11:32;12.18;;;2.50;;
41709;SDS011;59402;48.396;-4.472;2023-05-10T09:13:58;15.55;;;2.72;;
41709;SDS011;59402;48.396;-4.472;2023-05-10T09:16:24;13.10;;;2.65;;
41709;SDS011;59402;48.396;-4.472;2023-05-10T09:18:49;15.32;;;2.40;;
41709;SDS011;59402;48.396;-4.472;2023-05-10T09:21:15;18.05;;;2.83;;
41709;SDS011;59402;48.396;-4.472;2023-05-10T09:23:44;16.02;;;2.63;;
41709;SDS011;59402;48.396;-4.472;2023-05-10T09:26:11;12.48;;;2.20;;
41709;SDS011;59402;48.396;-4.472;2023-05-10T09:28:56;12.45;;;2.35;;
41709;SDS011;59402;48.396;-4.472;2023-05-10T09:31:23;16.63;;;2.47;;
41709;SDS011;59402;48.396;-4.472;2023-05-10T09:33:52;17.35;;;2.83;;
41709;SDS011;59402;48.396;-4.472;2023-05-10T09:36:18;18.83;;;2.92;;
41709;SDS011;59402;48.396;-4.472;2023-05-10T09:38:53;15.55;;;2.67;;
41709;SDS011;59402;48.396;-4.472;2023-05-10T09:41:19;13.02;;;2.78;;
41709;SDS011;59402;48.396;-4.472;2023-05-10T09:46:12;9.57;;;1.70;;
41709;SDS011;59402;48.396;-4.472;2023-05-10T09:48:43;15.77;;;1.95;;
41709;SDS011;59402;48.396;-4.472;2023-05-10T09:51:19;12.05;;;1.95;;
41709;SDS011;59402;48.396;-4.472;2023-05-10T09:53:45;10.93;;;2.50;;
41709;SDS011;59402;48.396;-4.472;2023-05-10T09:56:11;12.82;;;2.47;;
41709;SDS011;59402;48.396;-4.472;2023-05-10T09:58:37;12.27;;;2.42;;
41709;SDS011;59402;48.396;-4.472;2023-05-10T10:01:09;11.82;;;2.38;;
41709;SDS011;59402;48.396;-4.472;2023-05-10T10:03:41;10.48;;;2.00;;
41709;SDS011;59402;48.396;-4.472;2023-05-10T10:06:07;12.70;;;2.08;;
41709;SDS011;59402;48.396;-4.472;2023-05-10T10:08:33;10.95;;;2.38;;
41709;SDS011;59402;48.396;-4.472;2023-05-10T10:10:59;9.27;;;2.10;;
41709;SDS011;59402;48.396;-4.472;2023-05-10T10:13:26;9.43;;;2.33;;
41709;SDS011;59402;48.396;-4.472;2023-05-10T10:15:52;8.77;;;1.80;;
41709;SDS011;59402;48.396;-4.472;2023-05-10T10:18:18;7.13;;;1.92;;
41709;SDS011;59402;48.396;-4.472;2023-05-10T10:20:48;13.40;;;2.25;;
41709;SDS011;59402;48.396;-4.472;2023-05-10T10:23:14;10.32;;;1.90;;
41709;SDS011;59402;48.396;-4.472;2023-05-10T10:25:40;11.43;;;2.85;;
41709;SDS011;59402;48.396;-4.472;2023-05-10T10:28:21;9.63;;;1.88;;
41709;SDS011;59402;48.396;-4.472;2023-05-10T10:30:52;10.18;;;1.95;;
41709;SDS011;59402;48.396;-4.472;2023-05-10T10:36:05;7.05;;;1.63;;
41709;SDS011;59402;48.396;-4.472;2023-05-10T10:47:01;8.30;;;1.98;;
41709;SDS011;59402;48.396;-4.472;2023-05-10T10:50:02;10.13;;;2.08;;
41709;SDS011;59402;48.396;-4.472;2023-05-10T10:52:36;12.00;;;2.60;;
41709;SDS011;59402;48.396;-4.472;2023-05-10T10:57:31;12.32;;;2.25;;
41709;SDS011;59402;48.396;-4.472;2023-05-10T11:02:56;10.13;;;1.98;;
41709;SDS011;59402;48.396;-4.472;2023-05-10T11:08:09;11.00;;;2.05;;
41709;SDS011;59402;48.396;-4.472;2023-05-10T11:10:36;11.57;;;2.20;;
41709;SDS011;59402;48.396;-4.472;2023-05-10T11:13:03;14.85;;;2.40;;
41709;SDS011;59402;48.396;-4.472;2023-05-10T11:15:34;13.55;;;2.53;;
41709;SDS011;59402;48.396;-4.472;2023-05-10T11:18:17;16.80;;;2.72;;
41709;SDS011;59402;48.396;-4.472;2023-05-10T11:20:44;18.10;;;3.03;;
41709;SDS011;59402;48.396;-4.472;2023-05-10T11:23:20;13.45;;;2.50;;
41709;SDS011;59402;48.396;-4.472;2023-05-10T11:25:46;12.40;;;2.38;;
41709;SDS011;59402;48.396;-4.472;2023-05-10T11:28:13;14.30;;;3.00;;
41709;SDS011;59402;48.396;-4.472;2023-05-10T11:30:40;14.27;;;2.67;;
41709;SDS011;59402;48.396;-4.472;2023-05-10T11:33:08;12.80;;;2.28;;
41709;SDS011;59402;48.396;-4.472;2023-05-10T11:35:38;10.82;;;2.00;;
41709;SDS011;59402;48.396;-4.472;2023-05-10T11:38:08;10.55;;;2.33;;
41709;SDS011;59402;48.396;-4.472;2023-05-10T11:40:35;11.32;;;1.85;;
41709;SDS011;59402;48.396;-4.472;2023-05-10T11:43:02;12.93;;;2.90;;
41709;SDS011;59402;48.396;-4.472;2023-05-10T11:45:28;8.70;;;1.63;;
41709;SDS011;59402;48.396;-4.472;2023-05-10T11:47:57;12.77;;;2.30;;
41709;SDS011;59402;48.396;-4.472;2023-05-10T11:50:23;12.98;;;2.10;;
41709;SDS011;59402;48.396;-4.472;2023-05-10T11:52:53;10.15;;;2.05;;
41709;SDS011;59402;48.396;-4.472;2023-05-10T11:55:19;10.77;;;2.45;;
41709;SDS011;59402;48.396;-4.472;2023-05-10T11:57:45;9.32;;;2.15;;
41709;SDS011;59402;48.396;-4.472;2023-05-10T12:00:12;10.90;;;1.88;;
41709;SDS011;59402;48.396;-4.472;2023-05-10T12:02:38;13.07;;;2.25;;
41709;SDS011;59402;48.396;-4.472;2023-05-10T12:05:04;10.60;;;1.92;;
41709;SDS011;59402;48.396;-4.472;2023-05-10T12:07:31;11.10;;;2.23;;
41709;SDS011;59402;48.396;-4.472;2023-05-10T12:12:41;12.32;;;2.47;;
41709;SDS011;59402;48.396;-4.472;2023-05-10T12:15:12;13.00;;;2.47;;
41709;SDS011;59402;48.396;-4.472;2023-05-10T12:17:46;11.10;;;2.80;;
41709;SDS011;59402;48.396;-4.472;2023-05-10T12:20:22;8.85;;;1.77;;
41709;SDS011;59402;48.396;-4.472;2023-05-10T12:22:53;8.50;;;2.20;;
41709;SDS011;59402;48.396;-4.472;2023-05-10T12:25:21;16.92;;;2.55;;
41709;SDS011;59402;48.396;-4.472;2023-05-10T12:30:30;10.20;;;2.08;;
41709;SDS011;59402;48.396;-4.472;2023-05-10T12:33:07;10.23;;;2.05;;
41709;SDS011;59402;48.396;-4.472;2023-05-10T12:35:44;12.93;;;2.30;;
41709;SDS011;59402;48.396;-4.472;2023-05-10T12:38:31;10.27;;;1.75;;
41709;SDS011;59402;48.396;-4.472;2023-05-10T12:41:17;12.20;;;2.30;;
41709;SDS011;59402;48.396;-4.472;2023-05-10T12:43:43;8.85;;;2.20;;
41709;SDS011;59402;48.396;-4.472;2023-05-10T12:46:14;7.57;;;1.70;;
41709;SDS011;59402;48.396;-4.472;2023-05-10T12:48:41;7.10;;;1.58;;
41709;SDS011;59402;48.396;-4.472;2023-05-10T12:51:08;11.30;;;2.10;;
41709;SDS011;59402;48.396;-4.472;2023-05-10T12:53:40;6.57;;;1.65;;
41709;SDS011;59402;48.396;-4.472;2023-05-10T12:56:06;11.00;;;2.00;;
41709;SDS011;59402;48.396;-4.472;2023-05-10T12:58:32;11.77;;;1.90;;
41709;SDS011;59402;48.396;-4.472;2023-05-10T13:00:58;12.93;;;2.10;;
41709;SDS011;59402;48.396;-4.472;2023-05-10T13:03:25;10.55;;;1.50;;
41709;SDS011;59402;48.396;-4.472;2023-05-10T13:05:50;10.90;;;2.00;;
41709;SDS011;59402;48.396;-4.472;2023-05-10T13:08:16;7.32;;;1.60;;
41709;SDS011;59402;48.396;-4.472;2023-05-10T13:10:42;14.27;;;1.92;;
41709;SDS011;59402;48.396;-4.472;2023-05-10T13:13:08;6.90;;;1.40;;
41709;SDS011;59402;48.396;-4.472;2023-05-10T13:15:33;8.13;;;1.92;;
41709;SDS011;59402;48.396;-4.472;2023-05-10T13:17:59;8.80;;;2.35;;
41709;SDS011;59402;48.396;-4.472;2023-05-10T13:20:25;11.02;;;1.92;;
41709;SDS011;59402;48.396;-4.472;2023-05-10T13:22:51;7.68;;;1.70;;
41709;SDS011;59402;48.396;-4.472;2023-05-10T13:25:17;12.55;;;2.42;;
41709;SDS011;59402;48.396;-4.472;2023-05-10T13:27:42;12.70;;;2.25;;
41709;SDS011;59402;48.396;-4.472;2023-05-10T13:30:08;10.98;;;2.13;;
41709;SDS011;59402;48.396;-4.472;2023-05-10T13:32:36;10.68;;;1.95;;
41709;SDS011;59402;48.396;-4.472;2023-05-10T13:35:02;11.68;;;1.63;;
41709;SDS011;59402;48.396;-4.472;2023-05-10T13:37:28;10.40;;;1.58;;
41709;SDS011;59402;48.396;-4.472;2023-05-10T13:39:55;7.80;;;1.60;;
41709;SDS011;59402;48.396;-4.472;2023-05-10T13:42:21;8.18;;;1.70;;
41709;SDS011;59402;48.396;-4.472;2023-05-10T13:44:48;8.63;;;1.95;;
41709;SDS011;59402;48.396;-4.472;2023-05-10T13:47:14;9.25;;;1.60;;
41709;SDS011;59402;48.396;-4.472;2023-05-10T13:49:40;9.25;;;1.80;;
41709;SDS011;59402;48.396;-4.472;2023-05-10T13:52:05;9.00;;;2.25;;
41709;SDS011;59402;48.396;-4.472;2023-05-10T13:54:35;6.30;;;1.80;;
41709;SDS011;59402;48.396;-4.472;2023-05-10T13:57:02;10.05;;;1.67;;
41709;SDS011;59402;48.396;-4.472;2023-05-10T13:59:28;6.18;;;1.45;;
41709;SDS011;59402;48.396;-4.472;2023-05-10T14:01:54;8.52;;;1.95;;
41709;SDS011;59402;48.396;-4.472;2023-05-10T14:04:20;7.80;;;1.40;;
41709;SDS011;59402;48.396;-4.472;2023-05-10T14:06:45;9.02;;;1.77;;
41709;SDS011;59402;48.396;-4.472;2023-05-10T14:09:11;8.10;;;1.52;;
41709;SDS011;59402;48.396;-4.472;2023-05-10T14:11:37;10.55;;;1.45;;
41709;SDS011;59402;48.396;-4.472;2023-05-10T14:14:06;5.93;;;1.63;;
41709;SDS011;59402;48.396;-4.472;2023-05-10T14:16:32;8.77;;;1.65;;
41709;SDS011;59402;48.396;-4.472;2023-05-10T14:18:58;8.50;;;1.48;;
41709;SDS011;59402;48.396;-4.472;2023-05-10T14:21:24;5.88;;;1.35;;
41709;SDS011;59402;48.396;-4.472;2023-05-10T14:23:49;6.35;;;1.52;;
41709;SDS011;59402;48.396;-4.472;2023-05-10T14:26:15;10.30;;;1.45;;
41709;SDS011;59402;48.396;-4.472;2023-05-10T14:28:41;9.38;;;1.55;;
41709;SDS011;59402;48.396;-4.472;2023-05-10T14:31:07;6.13;;;1.58;;
41709;SDS011;59402;48.396;-4.472;2023-05-10T14:33:32;5.60;;;0.95;;
41709;SDS011;59402;48.396;-4.472;2023-05-10T14:35:58;8.05;;;1.40;;
41709;SDS011;59402;48.396;-4.472;2023-05-10T14:38:25;4.28;;;1.10;;
41709;SDS011;59402;48.396;-4.472;2023-05-10T14:40:51;6.32;;;1.35;;
41709;SDS011;59402;48.396;-4.472;2023-05-10T14:43:17;8.20;;;1.55;;
41709;SDS011;59402;48.396;-4.472;2023-05-10T14:45:43;6.25;;;1.48;;
41709;SDS011;59402;48.396;-4.472;2023-05-10T14:48:10;9.97;;;1.83;;
41709;SDS011;59402;48.396;-4.472;2023-05-10T14:50:40;7.38;;;1.20;;
41709;SDS011;59402;48.396;-4.472;2023-05-10T14:53:06;10.02;;;1.55;;
41709;SDS011;59402;48.396;-4.472;2023-05-10T14:55:32;8.40;;;1.58;;
41709;SDS011;59402;48.396;-4.472;2023-05-10T14:57:57;9.77;;;1.80;;
41709;SDS011;59402;48.396;-4.472;2023-05-10T15:00:23;11.57;;;1.73;;
41709;SDS011;59402;48.396;-4.472;2023-05-10T15:02:49;11.23;;;1.90;;
41709;SDS011;59402;48.396;-4.472;2023-05-10T15:05:15;11.93;;;1.92;;
41709;SDS011;59402;48.396;-4.472;2023-05-10T15:07:40;9.35;;;1.70;;
41709;SDS011;59402;48.396;-4.472;2023-05-10T15:10:09;10.50;;;1.55;;
41709;SDS011;59402;48.396;-4.472;2023-05-10T15:12:35;11.27;;;1.97;;
41709;SDS011;59402;48.396;-4.472;2023-05-10T15:15:01;9.75;;;1.50;;